PWSweather.com
Personal Weather Stations
Station Observations
KFLSTJOH36
Aberdeen Highland Point, Saint Johns, FL 32259

Aberdeen Highland PointSaint Johns, FL 32259

Lat: 30.082981, Lon: -81.59522

Elevation: 60

Station Type: Acurite 5-in-1 Weather Sensor

High Low Average
Temperature 84.0°F28.9°C 75.4°F24.1°C 79.9°F26.6°C
Dew Point 79.6°F26.4°C 73.5°F23.1°C 76.4°F24.7°C
Winds 15.0 mph 24.1 kmh Calm Calm 5.0 mph WSW8.0 kmh WSW
Wind Gusts -- -- --
Humidity 94% 78% 89%
Pressure 29.87 in1011.5 mb 29.73 in1006.8 mb -
Precipitation 0.90 in22.9 mm - -
Hour Temp Dew Point Humidity Winds Wind Gusts Pressure Precip Precip Rate Daily Precip Total
12:00 AM 83.5°F28.6°C 79.2°F26.2°C 87% 6.0 mph NE9.7 kmh NE -- 29.87 in1011.5 mb 0.00 in0.0 mm 0.00 in0.0 mm 0.00 in0.0 mm
12:05 AM 83.7°F28.7°C 79.4°F26.3°C 87% 4.0 mph ENE6.4 kmh ENE -- 29.87 in1011.5 mb 0.00 in0.0 mm 0.00 in0.0 mm 0.00 in0.0 mm
12:10 AM 83.7°F28.7°C 79.4°F26.3°C 87% 4.0 mph E6.4 kmh E -- 29.86 in1011.2 mb 0.00 in0.0 mm 0.00 in0.0 mm 0.00 in0.0 mm
12:15 AM 83.7°F28.7°C 79.4°F26.3°C 87% 8.0 mph ESE12.9 kmh ESE -- 29.86 in1011.2 mb 0.00 in0.0 mm 0.00 in0.0 mm 0.00 in0.0 mm
12:20 AM 83.8°F28.8°C 79.6°F26.4°C 87% 6.0 mph ENE9.7 kmh ENE -- 29.86 in1011.2 mb 0.00 in0.0 mm 0.00 in0.0 mm 0.00 in0.0 mm
12:25 AM 83.8°F28.8°C 79.6°F26.4°C 87% 3.0 mph SSE4.8 kmh SSE -- 29.86 in1011.2 mb 0.00 in0.0 mm 0.00 in0.0 mm 0.00 in0.0 mm
12:30 AM 83.7°F28.7°C 79.4°F26.3°C 87% 4.0 mph WNW6.4 kmh WNW -- 29.86 in1011.2 mb 0.00 in0.0 mm 0.00 in0.0 mm 0.00 in0.0 mm
12:35 AM 83.8°F28.8°C 79.2°F26.2°C 86% 7.0 mph ENE11.3 kmh ENE -- 29.86 in1011.2 mb 0.00 in0.0 mm 0.00 in0.0 mm 0.00 in0.0 mm
12:40 AM 83.8°F28.8°C 79.2°F26.2°C 86% 3.0 mph ENE4.8 kmh ENE -- 29.86 in1011.2 mb 0.00 in0.0 mm 0.00 in0.0 mm 0.00 in0.0 mm
12:45 AM 83.8°F28.8°C 79.2°F26.2°C 86% 11.0 mph NE17.7 kmh NE -- 29.85 in1010.8 mb 0.00 in0.0 mm 0.00 in0.0 mm 0.00 in0.0 mm
12:50 AM 83.8°F28.8°C 79.2°F26.2°C 86% 8.0 mph ENE12.9 kmh ENE -- 29.85 in1010.8 mb 0.00 in0.0 mm 0.00 in0.0 mm 0.00 in0.0 mm
12:55 AM 83.3°F28.5°C 79.4°F26.3°C 88% 14.0 mph NE22.5 kmh NE -- 29.85 in1010.8 mb 0.00 in0.0 mm 0.00 in0.0 mm 0.00 in0.0 mm
01:00 AM 83.1°F28.4°C 79.2°F26.2°C 88% 6.0 mph W9.7 kmh W -- 29.85 in1010.8 mb 0.00 in0.0 mm 0.00 in0.0 mm 0.00 in0.0 mm
01:05 AM 83.1°F28.4°C 79.2°F26.2°C 88% 12.0 mph NNE19.3 kmh NNE -- 29.84 in1010.5 mb 0.00 in0.0 mm 0.00 in0.0 mm 0.00 in0.0 mm
01:10 AM 83.5°F28.6°C 79.2°F26.2°C 87% 15.0 mph ENE24.1 kmh ENE -- 29.84 in1010.5 mb 0.00 in0.0 mm 0.00 in0.0 mm 0.00 in0.0 mm
01:15 AM 83.7°F28.7°C 79.4°F26.3°C 87% 12.0 mph NE19.3 kmh NE -- 29.83 in1010.2 mb 0.00 in0.0 mm 0.00 in0.0 mm 0.00 in0.0 mm
01:20 AM 83.8°F28.8°C 79.2°F26.2°C 86% 9.0 mph NE14.5 kmh NE -- 29.83 in1010.2 mb 0.00 in0.0 mm 0.00 in0.0 mm 0.00 in0.0 mm
01:25 AM 84.0°F28.9°C 79.4°F26.3°C 86% 7.0 mph ENE11.3 kmh ENE -- 29.83 in1010.2 mb 0.00 in0.0 mm 0.00 in0.0 mm 0.00 in0.0 mm
01:30 AM 84.0°F28.9°C 79.4°F26.3°C 86% 11.0 mph NE17.7 kmh NE -- 29.83 in1010.2 mb 0.00 in0.0 mm 0.00 in0.0 mm 0.00 in0.0 mm
01:35 AM 83.7°F28.7°C 79.4°F26.3°C 87% 6.0 mph ENE9.7 kmh ENE -- 29.83 in1010.2 mb 0.00 in0.0 mm 0.00 in0.0 mm 0.00 in0.0 mm
01:40 AM 83.5°F28.6°C 79.2°F26.2°C 87% 13.0 mph 20.9 kmh -- 29.83 in1010.2 mb 0.00 in0.0 mm 0.00 in0.0 mm 0.00 in0.0 mm
01:45 AM 83.8°F28.8°C 79.2°F26.2°C 86% 7.0 mph NE11.3 kmh NE -- 29.82 in1009.8 mb 0.00 in0.0 mm 0.00 in0.0 mm 0.00 in0.0 mm
01:50 AM 83.8°F28.8°C 79.2°F26.2°C 86% 15.0 mph NE24.1 kmh NE -- 29.82 in1009.8 mb 0.00 in0.0 mm 0.00 in0.0 mm 0.00 in0.0 mm
01:55 AM 82.6°F28.1°C 79.0°F26.1°C 89% 14.0 mph NE22.5 kmh NE -- 29.81 in1009.5 mb 0.02 in0.5 mm 0.24 in6.1 mm 0.02 in0.5 mm
02:00 AM 81.9°F27.7°C 79.0°F26.1°C 91% 5.0 mph NE8.0 kmh NE -- 29.80 in1009.1 mb 0.02 in0.5 mm 0.00 in0.0 mm 0.02 in0.5 mm
02:05 AM 81.9°F27.7°C 79.0°F26.1°C 91% 11.0 mph ENE17.7 kmh ENE -- 29.81 in1009.5 mb 0.02 in0.5 mm 0.00 in0.0 mm 0.02 in0.5 mm
02:10 AM 82.2°F27.9°C 79.3°F26.3°C 91% 6.0 mph NE9.7 kmh NE -- 29.81 in1009.5 mb 0.02 in0.5 mm 0.00 in0.0 mm 0.02 in0.5 mm
02:15 AM 82.0°F27.8°C 79.1°F26.2°C 91% 5.0 mph ENE8.0 kmh ENE -- 29.81 in1009.5 mb 0.03 in0.8 mm 0.12 in3.0 mm 0.03 in0.8 mm
02:20 AM 80.4°F26.9°C 77.9°F25.5°C 92% 7.0 mph WNW11.3 kmh WNW -- 29.81 in1009.5 mb 0.05 in1.3 mm 0.24 in6.1 mm 0.05 in1.3 mm
02:25 AM 78.6°F25.9°C 76.1°F24.5°C 92% 11.0 mph NE17.7 kmh NE -- 29.83 in1010.2 mb 0.08 in2.0 mm 0.36 in9.1 mm 0.08 in2.0 mm
02:30 AM 77.5°F25.3°C 75.3°F24.1°C 93% 14.0 mph ENE22.5 kmh ENE -- 29.83 in1010.2 mb 0.13 in3.3 mm 0.60 in15.2 mm 0.13 in3.3 mm
02:35 AM 76.5°F24.7°C 74.6°F23.7°C 94% 7.0 mph NE11.3 kmh NE -- 29.82 in1009.8 mb 0.23 in5.8 mm 1.20 in30.5 mm 0.23 in5.8 mm
02:40 AM 75.6°F24.2°C 73.7°F23.2°C 94% 11.0 mph ENE17.7 kmh ENE -- 29.82 in1009.8 mb 0.29 in7.4 mm 0.72 in18.3 mm 0.29 in7.4 mm
02:45 AM 75.6°F24.2°C 73.7°F23.2°C 94% 6.0 mph E9.7 kmh E -- 29.81 in1009.5 mb 0.30 in7.6 mm 0.12 in3.0 mm 0.30 in7.6 mm
02:50 AM 75.9°F24.4°C 74.1°F23.4°C 94% 9.0 mph NNE14.5 kmh NNE -- 29.80 in1009.1 mb 0.32 in8.1 mm 0.24 in6.1 mm 0.32 in8.1 mm
02:55 AM 76.3°F24.6°C 74.4°F23.6°C 94% 7.0 mph ENE11.3 kmh ENE -- 29.80 in1009.1 mb 0.30 in7.6 mm 0.00 in0.0 mm 0.32 in8.1 mm
03:00 AM 76.6°F24.8°C 74.8°F23.8°C 94% 12.0 mph NE19.3 kmh NE -- 29.80 in1009.1 mb 0.34 in8.6 mm 0.04 in1.0 mm 0.36 in9.1 mm
03:05 AM 77.5°F25.3°C 75.7°F24.3°C 94% 6.0 mph NE9.7 kmh NE -- 29.80 in1009.1 mb 0.37 in9.4 mm 0.36 in9.1 mm 0.39 in9.9 mm
03:10 AM 77.9°F25.5°C 76.0°F24.4°C 94% 4.0 mph NE6.4 kmh NE -- 29.79 in1008.8 mb 0.37 in9.4 mm 0.00 in0.0 mm 0.39 in9.9 mm
03:15 AM 77.9°F25.5°C 76.0°F24.4°C 94% 5.0 mph NNE8.0 kmh NNE -- 29.79 in1008.8 mb 0.33 in8.4 mm 0.00 in0.0 mm 0.39 in9.9 mm
03:20 AM 78.3°F25.7°C 76.4°F24.7°C 94% 6.0 mph E9.7 kmh E -- 29.79 in1008.8 mb 0.34 in8.6 mm 0.12 in3.0 mm 0.40 in10.2 mm
03:25 AM 78.6°F25.9°C 76.7°F24.8°C 94% 8.0 mph WNW12.9 kmh WNW -- 29.79 in1008.8 mb 0.26 in6.6 mm 0.00 in0.0 mm 0.40 in10.2 mm
03:30 AM 78.6°F25.9°C 76.7°F24.8°C 94% 9.0 mph NE14.5 kmh NE -- 29.79 in1008.8 mb 0.26 in6.6 mm 0.00 in0.0 mm 0.40 in10.2 mm
03:35 AM 78.8°F26.0°C 76.9°F24.9°C 94% 7.0 mph NE11.3 kmh NE -- 29.79 in1008.8 mb 0.12 in3.0 mm 0.00 in0.0 mm 0.41 in10.4 mm
03:40 AM 78.8°F26.0°C 76.9°F24.9°C 94% 4.0 mph ENE6.4 kmh ENE -- 29.79 in1008.8 mb 0.12 in3.0 mm 0.00 in0.0 mm 0.41 in10.4 mm
03:45 AM 78.8°F26.0°C 76.6°F24.8°C 93% 8.0 mph ENE12.9 kmh ENE -- 29.79 in1008.8 mb 0.12 in3.0 mm 0.00 in0.0 mm 0.41 in10.4 mm
03:50 AM 78.8°F26.0°C 76.6°F24.8°C 93% 7.0 mph WSW11.3 kmh WSW -- 29.79 in1008.8 mb 0.09 in2.3 mm 0.00 in0.0 mm 0.41 in10.4 mm
03:55 AM 78.8°F26.0°C 76.6°F24.8°C 93% 2.0 mph NE3.2 kmh NE -- 29.79 in1008.8 mb 0.03 in0.8 mm 0.00 in0.0 mm 0.41 in10.4 mm
04:00 AM 78.8°F26.0°C 76.6°F24.8°C 93% 3.0 mph NW4.8 kmh NW -- 29.79 in1008.8 mb 0.03 in0.8 mm 0.00 in0.0 mm 0.41 in10.4 mm
04:05 AM 78.8°F26.0°C 76.6°F24.8°C 93% 2.0 mph W3.2 kmh W -- 29.79 in1008.8 mb 0.02 in0.5 mm 0.00 in0.0 mm 0.41 in10.4 mm
04:10 AM 78.8°F26.0°C 76.6°F24.8°C 93% 5.0 mph NW8.0 kmh NW -- 29.78 in1008.5 mb 0.02 in0.5 mm 0.00 in0.0 mm 0.41 in10.4 mm
04:15 AM 78.8°F26.0°C 76.6°F24.8°C 93% 1.0 mph NNE1.6 kmh NNE -- 29.78 in1008.5 mb 0.01 in0.3 mm 0.00 in0.0 mm 0.41 in10.4 mm
04:20 AM 78.6°F25.9°C 76.4°F24.7°C 93% 7.0 mph NE11.3 kmh NE -- 29.78 in1008.5 mb 0.01 in0.3 mm 0.00 in0.0 mm 0.41 in10.4 mm
04:25 AM 78.4°F25.8°C 76.2°F24.6°C 93% 2.0 mph ENE3.2 kmh ENE -- 29.78 in1008.5 mb 0.02 in0.5 mm 0.12 in3.0 mm 0.42 in10.7 mm
04:30 AM 78.4°F25.8°C 76.2°F24.6°C 93% 3.0 mph WNW4.8 kmh WNW -- 29.78 in1008.5 mb 0.02 in0.5 mm 0.00 in0.0 mm 0.42 in10.7 mm
04:35 AM 78.3°F25.7°C 76.1°F24.5°C 93% 3.0 mph 4.8 kmh -- 29.78 in1008.5 mb 0.01 in0.3 mm 0.00 in0.0 mm 0.42 in10.7 mm
04:40 AM 78.1°F25.6°C 75.9°F24.4°C 93% 4.0 mph 6.4 kmh -- 29.79 in1008.8 mb 0.01 in0.3 mm 0.00 in0.0 mm 0.42 in10.7 mm
04:45 AM 78.1°F25.6°C 75.9°F24.4°C 93% 2.0 mph NNE3.2 kmh NNE -- 29.79 in1008.8 mb 0.01 in0.3 mm 0.00 in0.0 mm 0.42 in10.7 mm
04:50 AM 77.9°F25.5°C 76.0°F24.4°C 94% 5.0 mph WNW8.0 kmh WNW -- 29.79 in1008.8 mb 0.01 in0.3 mm 0.00 in0.0 mm 0.42 in10.7 mm
04:55 AM 77.9°F25.5°C 76.0°F24.4°C 94% 6.0 mph WNW9.7 kmh WNW -- 29.78 in1008.5 mb 0.01 in0.3 mm 0.00 in0.0 mm 0.42 in10.7 mm
05:00 AM 78.3°F25.7°C 76.4°F24.7°C 94% 5.0 mph WNW8.0 kmh WNW -- 29.79 in1008.8 mb 0.01 in0.3 mm 0.00 in0.0 mm 0.42 in10.7 mm
05:05 AM 77.9°F25.5°C 76.0°F24.4°C 94% 3.0 mph NW4.8 kmh NW -- 29.79 in1008.8 mb 0.01 in0.3 mm 0.00 in0.0 mm 0.42 in10.7 mm
05:10 AM 77.9°F25.5°C 76.0°F24.4°C 94% 10.0 mph WNW16.1 kmh WNW -- 29.80 in1009.1 mb 0.03 in0.8 mm 0.24 in6.1 mm 0.44 in11.2 mm
05:15 AM 77.7°F25.4°C 75.8°F24.3°C 94% 3.0 mph NNW4.8 kmh NNW -- 29.80 in1009.1 mb 0.04 in1.0 mm 0.12 in3.0 mm 0.45 in11.4 mm
05:20 AM 77.5°F25.3°C 75.7°F24.3°C 94% 6.0 mph NNE9.7 kmh NNE -- 29.80 in1009.1 mb 0.06 in1.5 mm 0.24 in6.1 mm 0.47 in11.9 mm
05:25 AM 77.2°F25.1°C 75.3°F24.1°C 94% 14.0 mph WNW22.5 kmh WNW -- 29.80 in1009.1 mb 0.06 in1.5 mm 0.00 in0.0 mm 0.48 in12.2 mm
05:30 AM 77.2°F25.1°C 75.3°F24.1°C 94% 2.0 mph NNW3.2 kmh NNW -- 29.80 in1009.1 mb 0.08 in2.0 mm 0.24 in6.1 mm 0.50 in12.7 mm
05:35 AM 77.0°F25.0°C 75.1°F23.9°C 94% 2.0 mph NW3.2 kmh NW -- 29.79 in1008.8 mb 0.09 in2.3 mm 0.12 in3.0 mm 0.51 in13.0 mm
05:40 AM 76.5°F24.7°C 74.6°F23.7°C 94% 4.0 mph NNW6.4 kmh NNW -- 29.78 in1008.5 mb 0.09 in2.3 mm 0.00 in0.0 mm 0.51 in13.0 mm
05:45 AM 76.1°F24.5°C 74.2°F23.4°C 94% 3.0 mph NNW4.8 kmh NNW -- 29.78 in1008.5 mb 0.10 in2.5 mm 0.12 in3.0 mm 0.52 in13.2 mm
05:50 AM 75.9°F24.4°C 74.1°F23.4°C 94% 2.0 mph 3.2 kmh -- 29.79 in1008.8 mb 0.10 in2.5 mm 0.00 in0.0 mm 0.52 in13.2 mm
05:55 AM 75.7°F24.3°C 73.9°F23.3°C 94% 5.0 mph NE8.0 kmh NE -- 29.79 in1008.8 mb 0.10 in2.5 mm 0.00 in0.0 mm 0.52 in13.2 mm
06:00 AM 75.7°F24.3°C 73.9°F23.3°C 94% 3.0 mph W4.8 kmh W -- 29.79 in1008.8 mb 0.10 in2.5 mm 0.00 in0.0 mm 0.52 in13.2 mm
06:05 AM 75.4°F24.1°C 73.5°F23.1°C 94% 4.0 mph NW6.4 kmh NW -- 29.79 in1008.8 mb 0.09 in2.3 mm 0.00 in0.0 mm 0.53 in13.5 mm
06:10 AM 75.4°F24.1°C 73.5°F23.1°C 94% 6.0 mph NW9.7 kmh NW -- 29.79 in1008.8 mb 0.09 in2.3 mm 0.00 in0.0 mm 0.53 in13.5 mm
06:20 AM 75.7°F24.3°C 73.9°F23.3°C 94% 4.0 mph W6.4 kmh W -- 29.79 in1008.8 mb 0.06 in1.5 mm 0.00 in0.0 mm 0.53 in13.5 mm
06:25 AM 75.7°F24.3°C 73.9°F23.3°C 94% 4.0 mph WNW6.4 kmh WNW -- 29.79 in1008.8 mb 0.03 in0.8 mm 0.00 in0.0 mm 0.53 in13.5 mm
06:30 AM 75.7°F24.3°C 73.9°F23.3°C 94% 5.0 mph WSW8.0 kmh WSW -- 29.78 in1008.5 mb 0.03 in0.8 mm 0.00 in0.0 mm 0.53 in13.5 mm
06:35 AM 75.9°F24.4°C 74.1°F23.4°C 94% 4.0 mph W6.4 kmh W -- 29.78 in1008.5 mb 0.02 in0.5 mm 0.00 in0.0 mm 0.53 in13.5 mm
06:40 AM 76.1°F24.5°C 74.2°F23.4°C 94% 4.0 mph NW6.4 kmh NW -- 29.78 in1008.5 mb 0.02 in0.5 mm 0.00 in0.0 mm 0.53 in13.5 mm
06:45 AM 76.5°F24.7°C 74.6°F23.7°C 94% 4.0 mph WNW6.4 kmh WNW -- 29.79 in1008.8 mb 0.01 in0.3 mm 0.00 in0.0 mm 0.53 in13.5 mm
06:50 AM 76.5°F24.7°C 74.6°F23.7°C 94% 3.0 mph W4.8 kmh W -- 29.78 in1008.5 mb 0.01 in0.3 mm 0.00 in0.0 mm 0.53 in13.5 mm
06:55 AM 76.6°F24.8°C 74.8°F23.8°C 94% 2.0 mph 3.2 kmh -- 29.78 in1008.5 mb 0.00 in0.0 mm 0.00 in0.0 mm 0.53 in13.5 mm
07:00 AM 76.6°F24.8°C 74.8°F23.8°C 94% 2.0 mph W3.2 kmh W -- 29.79 in1008.8 mb 0.01 in0.3 mm 0.01 in0.3 mm 0.54 in13.7 mm
07:05 AM 76.8°F24.9°C 75.0°F23.9°C 94% 4.0 mph WNW6.4 kmh WNW -- 29.79 in1008.8 mb 0.01 in0.3 mm 0.00 in0.0 mm 0.54 in13.7 mm
07:10 AM 77.0°F25.0°C 75.1°F23.9°C 94% 7.0 mph WNW11.3 kmh WNW -- 29.79 in1008.8 mb 0.01 in0.3 mm 0.00 in0.0 mm 0.54 in13.7 mm
07:15 AM 77.2°F25.1°C 75.3°F24.1°C 94% 3.0 mph WNW4.8 kmh WNW -- 29.79 in1008.8 mb 0.03 in0.8 mm 0.24 in6.1 mm 0.56 in14.2 mm
07:20 AM 77.4°F25.2°C 75.5°F24.2°C 94% 3.0 mph WNW4.8 kmh WNW -- 29.79 in1008.8 mb 0.03 in0.8 mm 0.00 in0.0 mm 0.56 in14.2 mm
07:25 AM 77.4°F25.2°C 75.5°F24.2°C 94% 3.0 mph NNW4.8 kmh NNW -- 29.79 in1008.8 mb 0.03 in0.8 mm 0.00 in0.0 mm 0.56 in14.2 mm
07:30 AM 77.4°F25.2°C 75.5°F24.2°C 94% 5.0 mph NNW8.0 kmh NNW -- 29.79 in1008.8 mb 0.03 in0.8 mm 0.00 in0.0 mm 0.56 in14.2 mm
07:35 AM 77.4°F25.2°C 75.5°F24.2°C 94% 4.0 mph W6.4 kmh W -- 29.78 in1008.5 mb 0.03 in0.8 mm 0.00 in0.0 mm 0.56 in14.2 mm
07:40 AM 77.4°F25.2°C 75.5°F24.2°C 94% 6.0 mph WNW9.7 kmh WNW -- 29.79 in1008.8 mb 0.03 in0.8 mm 0.00 in0.0 mm 0.56 in14.2 mm
07:45 AM 77.4°F25.2°C 75.5°F24.2°C 94% 5.0 mph WNW8.0 kmh WNW -- 29.79 in1008.8 mb 0.04 in1.0 mm 0.12 in3.0 mm 0.57 in14.5 mm
07:50 AM 77.2°F25.1°C 75.3°F24.1°C 94% 7.0 mph NNW11.3 kmh NNW -- 29.79 in1008.8 mb 0.06 in1.5 mm 0.24 in6.1 mm 0.59 in15.0 mm
07:55 AM 77.5°F25.3°C 75.7°F24.3°C 94% 3.0 mph NNW4.8 kmh NNW -- 29.79 in1008.8 mb 0.06 in1.5 mm 0.00 in0.0 mm 0.60 in15.2 mm
08:00 AM 77.2°F25.1°C 75.3°F24.1°C 94% 6.0 mph WNW9.7 kmh WNW -- 29.79 in1008.8 mb 0.06 in1.5 mm 0.00 in0.0 mm 0.60 in15.2 mm
08:05 AM 77.5°F25.3°C 75.7°F24.3°C 94% 7.0 mph NW11.3 kmh NW -- 29.79 in1008.8 mb 0.06 in1.5 mm 0.00 in0.0 mm 0.60 in15.2 mm
08:10 AM 77.5°F25.3°C 75.7°F24.3°C 94% 7.0 mph NE11.3 kmh NE -- 29.79 in1008.8 mb 0.06 in1.5 mm 0.00 in0.0 mm 0.60 in15.2 mm
08:15 AM 77.4°F25.2°C 75.5°F24.2°C 94% 5.0 mph W8.0 kmh W -- 29.79 in1008.8 mb 0.05 in1.3 mm 0.00 in0.0 mm 0.61 in15.5 mm
08:20 AM 77.5°F25.3°C 75.7°F24.3°C 94% 4.0 mph NNE6.4 kmh NNE -- 29.79 in1008.8 mb 0.05 in1.3 mm 0.00 in0.0 mm 0.61 in15.5 mm
08:25 AM 77.5°F25.3°C 75.7°F24.3°C 94% 3.0 mph W4.8 kmh W -- 29.79 in1008.8 mb 0.05 in1.3 mm 0.00 in0.0 mm 0.61 in15.5 mm
08:30 AM 77.4°F25.2°C 75.5°F24.2°C 94% 6.0 mph WNW9.7 kmh WNW -- 29.79 in1008.8 mb 0.05 in1.3 mm 0.00 in0.0 mm 0.61 in15.5 mm
08:35 AM 77.2°F25.1°C 75.3°F24.1°C 94% 4.0 mph W6.4 kmh W -- 29.79 in1008.8 mb 0.05 in1.3 mm 0.00 in0.0 mm 0.61 in15.5 mm
08:40 AM 77.0°F25.0°C 75.1°F23.9°C 94% 4.0 mph NW6.4 kmh NW -- 29.79 in1008.8 mb 0.05 in1.3 mm 0.00 in0.0 mm 0.61 in15.5 mm
08:45 AM 77.0°F25.0°C 75.1°F23.9°C 94% 6.0 mph WNW9.7 kmh WNW -- 29.78 in1008.5 mb 0.01 in0.3 mm 0.00 in0.0 mm 0.61 in15.5 mm
08:50 AM 77.4°F25.2°C 75.5°F24.2°C 94% 3.0 mph ENE4.8 kmh ENE -- 29.77 in1008.1 mb 0.01 in0.3 mm 0.00 in0.0 mm 0.61 in15.5 mm
08:55 AM 77.2°F25.1°C 75.3°F24.1°C 94% 4.0 mph WNW6.4 kmh WNW -- 29.78 in1008.5 mb 0.01 in0.3 mm 0.00 in0.0 mm 0.61 in15.5 mm
09:00 AM 77.2°F25.1°C 75.3°F24.1°C 94% 7.0 mph W11.3 kmh W -- 29.78 in1008.5 mb 0.01 in0.3 mm 0.00 in0.0 mm 0.61 in15.5 mm
09:05 AM 77.2°F25.1°C 75.3°F24.1°C 94% 3.0 mph SW4.8 kmh SW -- 29.78 in1008.5 mb 0.00 in0.0 mm 0.00 in0.0 mm 0.61 in15.5 mm
09:10 AM 77.0°F25.0°C 75.1°F23.9°C 94% 6.0 mph W9.7 kmh W -- 29.78 in1008.5 mb 0.03 in0.8 mm 0.36 in9.1 mm 0.64 in16.3 mm
09:15 AM 77.0°F25.0°C 75.1°F23.9°C 94% 7.0 mph WNW11.3 kmh WNW -- 29.78 in1008.5 mb 0.03 in0.8 mm 0.00 in0.0 mm 0.64 in16.3 mm
09:20 AM 77.0°F25.0°C 75.1°F23.9°C 94% 4.0 mph WNW6.4 kmh WNW -- 29.78 in1008.5 mb 0.03 in0.8 mm 0.00 in0.0 mm 0.64 in16.3 mm
09:25 AM 77.4°F25.2°C 75.5°F24.2°C 94% 4.0 mph W6.4 kmh W -- 29.78 in1008.5 mb 0.03 in0.8 mm 0.00 in0.0 mm 0.64 in16.3 mm
09:30 AM 77.4°F25.2°C 75.5°F24.2°C 94% 4.0 mph NW6.4 kmh NW -- 29.78 in1008.5 mb 0.03 in0.8 mm 0.00 in0.0 mm 0.64 in16.3 mm
09:35 AM 77.9°F25.5°C 76.0°F24.4°C 94% 2.0 mph WNW3.2 kmh WNW -- 29.78 in1008.5 mb 0.03 in0.8 mm 0.00 in0.0 mm 0.64 in16.3 mm
09:40 AM 78.1°F25.6°C 76.2°F24.6°C 94% 5.0 mph SW8.0 kmh SW -- 29.78 in1008.5 mb 0.03 in0.8 mm 0.00 in0.0 mm 0.64 in16.3 mm
09:45 AM 78.4°F25.8°C 76.2°F24.6°C 93% 5.0 mph W8.0 kmh W -- 29.79 in1008.8 mb 0.03 in0.8 mm 0.00 in0.0 mm 0.64 in16.3 mm
09:50 AM 79.0°F26.1°C 76.8°F24.9°C 93% 2.0 mph NNW3.2 kmh NNW -- 29.79 in1008.8 mb 0.03 in0.8 mm 0.00 in0.0 mm 0.64 in16.3 mm
09:55 AM 79.3°F26.3°C 76.8°F24.9°C 92% 3.0 mph W4.8 kmh W -- 29.78 in1008.5 mb 0.03 in0.8 mm 0.00 in0.0 mm 0.64 in16.3 mm
10:00 AM 79.7°F26.5°C 77.2°F25.1°C 92% 6.0 mph W9.7 kmh W -- 29.78 in1008.5 mb 0.03 in0.8 mm 0.00 in0.0 mm 0.64 in16.3 mm
10:05 AM 79.9°F26.6°C 77.0°F25.0°C 91% 4.0 mph NNW6.4 kmh NNW -- 29.78 in1008.5 mb 0.00 in0.0 mm 0.00 in0.0 mm 0.64 in16.3 mm
10:10 AM 80.1°F26.7°C 77.2°F25.1°C 91% 4.0 mph NW6.4 kmh NW -- 29.78 in1008.5 mb 0.00 in0.0 mm 0.00 in0.0 mm 0.64 in16.3 mm
10:15 AM 80.2°F26.8°C 77.0°F25.0°C 90% 8.0 mph W12.9 kmh W -- 29.77 in1008.1 mb 0.00 in0.0 mm 0.00 in0.0 mm 0.64 in16.3 mm
10:20 AM 80.1°F26.7°C 76.9°F24.9°C 90% 6.0 mph WNW9.7 kmh WNW -- 29.77 in1008.1 mb 0.00 in0.0 mm 0.00 in0.0 mm 0.64 in16.3 mm
10:25 AM 80.2°F26.8°C 77.0°F25.0°C 90% 7.0 mph NNW11.3 kmh NNW -- 29.77 in1008.1 mb 0.00 in0.0 mm 0.00 in0.0 mm 0.64 in16.3 mm
10:30 AM 80.1°F26.7°C 77.2°F25.1°C 91% 7.0 mph NW11.3 kmh NW -- 29.78 in1008.5 mb 0.00 in0.0 mm 0.00 in0.0 mm 0.64 in16.3 mm
10:35 AM 79.9°F26.6°C 77.0°F25.0°C 91% 10.0 mph WNW16.1 kmh WNW -- 29.77 in1008.1 mb 0.00 in0.0 mm 0.00 in0.0 mm 0.64 in16.3 mm
10:40 AM 80.4°F26.9°C 77.5°F25.3°C 91% 5.0 mph WNW8.0 kmh WNW -- 29.77 in1008.1 mb 0.00 in0.0 mm 0.00 in0.0 mm 0.64 in16.3 mm
10:45 AM 80.8°F27.1°C 77.6°F25.3°C 90% 7.0 mph W11.3 kmh W -- 29.76 in1007.8 mb 0.00 in0.0 mm 0.00 in0.0 mm 0.64 in16.3 mm
10:50 AM 81.0°F27.2°C 77.7°F25.4°C 90% 7.0 mph W11.3 kmh W -- 29.76 in1007.8 mb 0.00 in0.0 mm 0.00 in0.0 mm 0.64 in16.3 mm
10:55 AM 81.3°F27.4°C 77.8°F25.4°C 89% 5.0 mph WNW8.0 kmh WNW -- 29.76 in1007.8 mb 0.00 in0.0 mm 0.00 in0.0 mm 0.64 in16.3 mm
11:00 AM 81.7°F27.6°C 77.8°F25.4°C 88% 3.0 mph W4.8 kmh W -- 29.76 in1007.8 mb 0.00 in0.0 mm 0.00 in0.0 mm 0.64 in16.3 mm
11:05 AM 81.7°F27.6°C 77.4°F25.2°C 87% 7.0 mph WNW11.3 kmh WNW -- 29.76 in1007.8 mb 0.00 in0.0 mm 0.00 in0.0 mm 0.64 in16.3 mm
11:10 AM 81.5°F27.5°C 77.9°F25.5°C 89% 7.0 mph W11.3 kmh W -- 29.76 in1007.8 mb 0.00 in0.0 mm 0.00 in0.0 mm 0.64 in16.3 mm
11:15 AM 81.1°F27.3°C 77.6°F25.3°C 89% 2.0 mph W3.2 kmh W -- 29.75 in1007.5 mb 0.00 in0.0 mm 0.00 in0.0 mm 0.64 in16.3 mm
11:20 AM 81.5°F27.5°C 77.9°F25.5°C 89% 3.0 mph NNW4.8 kmh NNW -- 29.76 in1007.8 mb 0.00 in0.0 mm 0.00 in0.0 mm 0.64 in16.3 mm
11:25 AM 81.5°F27.5°C 77.9°F25.5°C 89% 8.0 mph W12.9 kmh W -- 29.75 in1007.5 mb 0.00 in0.0 mm 0.00 in0.0 mm 0.64 in16.3 mm
11:30 AM 81.0°F27.2°C 77.7°F25.4°C 90% 8.0 mph NW12.9 kmh NW -- 29.76 in1007.8 mb 0.00 in0.0 mm 0.00 in0.0 mm 0.64 in16.3 mm
11:35 AM 80.8°F27.1°C 77.6°F25.3°C 90% 4.0 mph WNW6.4 kmh WNW -- 29.75 in1007.5 mb 0.00 in0.0 mm 0.00 in0.0 mm 0.64 in16.3 mm
11:40 AM 80.8°F27.1°C 77.6°F25.3°C 90% 5.0 mph NE8.0 kmh NE -- 29.75 in1007.5 mb 0.01 in0.3 mm 0.12 in3.0 mm 0.65 in16.5 mm
11:45 AM 81.1°F27.3°C 77.6°F25.3°C 89% 6.0 mph WNW9.7 kmh WNW -- 29.74 in1007.1 mb 0.01 in0.3 mm 0.00 in0.0 mm 0.65 in16.5 mm
11:50 AM 81.9°F27.7°C 77.6°F25.3°C 87% 8.0 mph WNW12.9 kmh WNW -- 29.74 in1007.1 mb 0.01 in0.3 mm 0.00 in0.0 mm 0.65 in16.5 mm
11:55 AM 81.9°F27.7°C 77.6°F25.3°C 87% 12.0 mph WNW19.3 kmh WNW -- 29.74 in1007.1 mb 0.01 in0.3 mm 0.00 in0.0 mm 0.65 in16.5 mm
12:00 PM 81.5°F27.5°C 77.6°F25.3°C 88% 6.0 mph W9.7 kmh W -- 29.74 in1007.1 mb 0.01 in0.3 mm 0.00 in0.0 mm 0.65 in16.5 mm
12:05 PM 81.5°F27.5°C 77.6°F25.3°C 88% 4.0 mph W6.4 kmh W -- 29.74 in1007.1 mb 0.01 in0.3 mm 0.00 in0.0 mm 0.65 in16.5 mm
12:10 PM 81.1°F27.3°C 77.6°F25.3°C 89% 4.0 mph NNW6.4 kmh NNW -- 29.74 in1007.1 mb 0.01 in0.3 mm 0.00 in0.0 mm 0.65 in16.5 mm
12:15 PM 80.2°F26.8°C 77.0°F25.0°C 90% 9.0 mph WNW14.5 kmh WNW -- 29.75 in1007.5 mb 0.02 in0.5 mm 0.12 in3.0 mm 0.66 in16.8 mm
12:20 PM 80.1°F26.7°C 77.5°F25.3°C 92% 3.0 mph NNW4.8 kmh NNW -- 29.75 in1007.5 mb 0.02 in0.5 mm 0.00 in0.0 mm 0.66 in16.8 mm
12:25 PM 80.6°F27.0°C 77.7°F25.4°C 91% 3.0 mph WNW4.8 kmh WNW -- 29.75 in1007.5 mb 0.02 in0.5 mm 0.00 in0.0 mm 0.66 in16.8 mm
12:30 PM 80.6°F27.0°C 77.4°F25.2°C 90% 5.0 mph WNW8.0 kmh WNW -- 29.75 in1007.5 mb 0.02 in0.5 mm 0.00 in0.0 mm 0.66 in16.8 mm
12:35 PM 81.1°F27.3°C 77.9°F25.5°C 90% 2.0 mph WNW3.2 kmh WNW -- 29.74 in1007.1 mb 0.01 in0.3 mm 0.00 in0.0 mm 0.66 in16.8 mm
12:40 PM 81.0°F27.2°C 77.4°F25.2°C 89% 5.0 mph WNW8.0 kmh WNW -- 29.74 in1007.1 mb 0.01 in0.3 mm 0.00 in0.0 mm 0.66 in16.8 mm
12:45 PM 81.1°F27.3°C 77.2°F25.1°C 88% 6.0 mph WNW9.7 kmh WNW -- 29.73 in1006.8 mb 0.01 in0.3 mm 0.00 in0.0 mm 0.66 in16.8 mm
12:50 PM 81.1°F27.3°C 77.2°F25.1°C 88% 5.0 mph WNW8.0 kmh WNW -- 29.74 in1007.1 mb 0.01 in0.3 mm 0.00 in0.0 mm 0.66 in16.8 mm
12:55 PM 80.8°F27.1°C 77.2°F25.1°C 89% 8.0 mph NW12.9 kmh NW -- 29.74 in1007.1 mb 0.01 in0.3 mm 0.00 in0.0 mm 0.66 in16.8 mm
01:00 PM 80.8°F27.1°C 76.9°F24.9°C 88% 5.0 mph NW8.0 kmh NW -- 29.74 in1007.1 mb 0.02 in0.5 mm 0.01 in0.3 mm 0.67 in17.0 mm
01:05 PM 81.1°F27.3°C 77.2°F25.1°C 88% 6.0 mph WNW9.7 kmh WNW -- 29.74 in1007.1 mb 0.02 in0.5 mm 0.00 in0.0 mm 0.67 in17.0 mm
01:10 PM 80.4°F26.9°C 77.2°F25.1°C 90% 9.0 mph W14.5 kmh W -- 29.74 in1007.1 mb 0.02 in0.5 mm 0.00 in0.0 mm 0.67 in17.0 mm
01:15 PM 79.9°F26.6°C 77.0°F25.0°C 91% 4.0 mph WNW6.4 kmh WNW -- 29.75 in1007.5 mb 0.02 in0.5 mm 0.00 in0.0 mm 0.68 in17.3 mm
01:20 PM 79.0°F26.1°C 76.5°F24.7°C 92% 4.0 mph WNW6.4 kmh WNW -- 29.76 in1007.8 mb 0.04 in1.0 mm 0.24 in6.1 mm 0.70 in17.8 mm
01:25 PM 78.8°F26.0°C 76.3°F24.6°C 92% 6.0 mph WNW9.7 kmh WNW -- 29.75 in1007.5 mb 0.04 in1.0 mm 0.00 in0.0 mm 0.70 in17.8 mm
01:30 PM 79.0°F26.1°C 76.5°F24.7°C 92% 6.0 mph WNW9.7 kmh WNW -- 29.75 in1007.5 mb 0.04 in1.0 mm 0.00 in0.0 mm 0.70 in17.8 mm
01:35 PM 79.2°F26.2°C 76.6°F24.8°C 92% 7.0 mph WNW11.3 kmh WNW -- 29.74 in1007.1 mb 0.04 in1.0 mm 0.00 in0.0 mm 0.70 in17.8 mm
01:40 PM 79.2°F26.2°C 76.3°F24.6°C 91% 3.0 mph W4.8 kmh W -- 29.75 in1007.5 mb 0.04 in1.0 mm 0.00 in0.0 mm 0.70 in17.8 mm
01:45 PM 79.0°F26.1°C 76.5°F24.7°C 92% 7.0 mph W11.3 kmh W -- 29.75 in1007.5 mb 0.04 in1.0 mm 0.00 in0.0 mm 0.70 in17.8 mm
01:50 PM 78.6°F25.9°C 76.1°F24.5°C 92% 7.0 mph NW11.3 kmh NW -- 29.74 in1007.1 mb 0.04 in1.0 mm 0.00 in0.0 mm 0.70 in17.8 mm
01:55 PM 78.4°F25.8°C 75.9°F24.4°C 92% 5.0 mph WNW8.0 kmh WNW -- 29.75 in1007.5 mb 0.03 in0.8 mm 0.00 in0.0 mm 0.70 in17.8 mm
02:00 PM 78.6°F25.9°C 76.1°F24.5°C 92% 6.0 mph WNW9.7 kmh WNW -- 29.74 in1007.1 mb 0.03 in0.8 mm 0.00 in0.0 mm 0.70 in17.8 mm
02:05 PM 78.8°F26.0°C 75.6°F24.2°C 90% 9.0 mph NW14.5 kmh NW -- 29.74 in1007.1 mb 0.03 in0.8 mm 0.00 in0.0 mm 0.70 in17.8 mm
02:10 PM 79.3°F26.3°C 75.8°F24.3°C 89% 6.0 mph WNW9.7 kmh WNW -- 29.74 in1007.1 mb 0.03 in0.8 mm 0.00 in0.0 mm 0.70 in17.8 mm
02:15 PM 80.2°F26.8°C 75.7°F24.3°C 86% 8.0 mph WNW12.9 kmh WNW -- 29.74 in1007.1 mb 0.00 in0.0 mm 0.00 in0.0 mm 0.70 in17.8 mm
02:20 PM 80.6°F27.0°C 76.0°F24.4°C 86% 5.0 mph NW8.0 kmh NW -- 29.73 in1006.8 mb 0.00 in0.0 mm 0.00 in0.0 mm 0.70 in17.8 mm
02:25 PM 81.1°F27.3°C 75.8°F24.3°C 84% 5.0 mph W8.0 kmh W -- 29.73 in1006.8 mb 0.00 in0.0 mm 0.00 in0.0 mm 0.70 in17.8 mm
02:30 PM 81.5°F27.5°C 76.5°F24.7°C 85% 5.0 mph W8.0 kmh W -- 29.73 in1006.8 mb 0.00 in0.0 mm 0.00 in0.0 mm 0.70 in17.8 mm
02:40 PM 80.6°F27.0°C 76.4°F24.7°C 87% 6.0 mph W9.7 kmh W -- 29.73 in1006.8 mb 0.01 in0.3 mm 0.06 in1.5 mm 0.71 in18.0 mm
02:45 PM 80.4°F26.9°C 76.2°F24.6°C 87% 5.0 mph W8.0 kmh W -- 29.74 in1007.1 mb 0.01 in0.3 mm 0.00 in0.0 mm 0.71 in18.0 mm
02:50 PM 79.9°F26.6°C 76.3°F24.6°C 89% 9.0 mph W14.5 kmh W -- 29.74 in1007.1 mb 0.01 in0.3 mm 0.00 in0.0 mm 0.71 in18.0 mm
02:55 PM 79.7°F26.5°C 76.2°F24.6°C 89% 4.0 mph WNW6.4 kmh WNW -- 29.74 in1007.1 mb 0.01 in0.3 mm 0.00 in0.0 mm 0.71 in18.0 mm
03:00 PM 79.7°F26.5°C 76.2°F24.6°C 89% 4.0 mph NW6.4 kmh NW -- 29.74 in1007.1 mb 0.01 in0.3 mm 0.00 in0.0 mm 0.71 in18.0 mm
03:05 PM 79.9°F26.6°C 76.3°F24.6°C 89% 4.0 mph W6.4 kmh W -- 29.74 in1007.1 mb 0.01 in0.3 mm 0.00 in0.0 mm 0.71 in18.0 mm
03:10 PM 80.2°F26.8°C 76.4°F24.7°C 88% 4.0 mph W6.4 kmh W -- 29.73 in1006.8 mb 0.01 in0.3 mm 0.00 in0.0 mm 0.71 in18.0 mm
03:15 PM 80.1°F26.7°C 76.2°F24.6°C 88% 5.0 mph W8.0 kmh W -- 29.73 in1006.8 mb 0.02 in0.5 mm 0.12 in3.0 mm 0.72 in18.3 mm
03:20 PM 80.1°F26.7°C 76.2°F24.6°C 88% 5.0 mph NE8.0 kmh NE -- 29.74 in1007.1 mb 0.02 in0.5 mm 0.00 in0.0 mm 0.72 in18.3 mm
03:25 PM 80.1°F26.7°C 75.8°F24.3°C 87% 8.0 mph WNW12.9 kmh WNW -- 29.74 in1007.1 mb 0.02 in0.5 mm 0.00 in0.0 mm 0.72 in18.3 mm
03:30 PM 80.6°F27.0°C 76.4°F24.7°C 87% 7.0 mph NW11.3 kmh NW -- 29.74 in1007.1 mb 0.02 in0.5 mm 0.00 in0.0 mm 0.72 in18.3 mm
03:35 PM 81.0°F27.2°C 76.0°F24.4°C 85% 5.0 mph W8.0 kmh W -- 29.74 in1007.1 mb 0.01 in0.3 mm 0.00 in0.0 mm 0.72 in18.3 mm
03:40 PM 81.1°F27.3°C 76.5°F24.7°C 86% 4.0 mph WNW6.4 kmh WNW -- 29.74 in1007.1 mb 0.02 in0.5 mm 0.12 in3.0 mm 0.73 in18.5 mm
03:45 PM 80.6°F27.0°C 76.7°F24.8°C 88% 3.0 mph WNW4.8 kmh WNW -- 29.76 in1007.8 mb 0.02 in0.5 mm 0.00 in0.0 mm 0.73 in18.5 mm
03:50 PM 80.1°F26.7°C 76.5°F24.7°C 89% 5.0 mph W8.0 kmh W -- 29.76 in1007.8 mb 0.03 in0.8 mm 0.12 in3.0 mm 0.74 in18.8 mm
03:55 PM 79.7°F26.5°C 76.5°F24.7°C 90% 4.0 mph W6.4 kmh W -- 29.75 in1007.5 mb 0.03 in0.8 mm 0.00 in0.0 mm 0.74 in18.8 mm
04:00 PM 79.7°F26.5°C 76.5°F24.7°C 90% 5.0 mph NW8.0 kmh NW -- 29.74 in1007.1 mb 0.03 in0.8 mm 0.00 in0.0 mm 0.74 in18.8 mm
04:05 PM 79.9°F26.6°C 76.7°F24.8°C 90% 4.0 mph W6.4 kmh W -- 29.75 in1007.5 mb 0.03 in0.8 mm 0.00 in0.0 mm 0.75 in19.1 mm
04:10 PM 79.5°F26.4°C 76.3°F24.6°C 90% 5.0 mph NW8.0 kmh NW -- 29.76 in1007.8 mb 0.03 in0.8 mm 0.00 in0.0 mm 0.75 in19.1 mm
04:15 PM 79.5°F26.4°C 76.3°F24.6°C 90% 4.0 mph W6.4 kmh W -- 29.76 in1007.8 mb 0.03 in0.8 mm 0.00 in0.0 mm 0.75 in19.1 mm
04:20 PM 80.1°F26.7°C 75.8°F24.3°C 87% 8.0 mph NW12.9 kmh NW -- 29.76 in1007.8 mb 0.03 in0.8 mm 0.00 in0.0 mm 0.75 in19.1 mm
04:25 PM 80.8°F27.1°C 76.2°F24.6°C 86% 3.0 mph WNW4.8 kmh WNW -- 29.76 in1007.8 mb 0.03 in0.8 mm 0.00 in0.0 mm 0.75 in19.1 mm
04:30 PM 81.3°F27.4°C 76.4°F24.7°C 85% 6.0 mph WNW9.7 kmh WNW -- 29.76 in1007.8 mb 0.03 in0.8 mm 0.00 in0.0 mm 0.75 in19.1 mm
04:35 PM 81.5°F27.5°C 75.5°F24.2°C 82% 7.0 mph WNW11.3 kmh WNW -- 29.75 in1007.5 mb 0.02 in0.5 mm 0.00 in0.0 mm 0.75 in19.1 mm
04:40 PM 81.9°F27.7°C 76.2°F24.6°C 83% 4.0 mph WNW6.4 kmh WNW -- 29.76 in1007.8 mb 0.02 in0.5 mm 0.00 in0.0 mm 0.75 in19.1 mm
04:45 PM 81.5°F27.5°C 75.8°F24.3°C 83% 3.0 mph NW4.8 kmh NW -- 29.76 in1007.8 mb 0.01 in0.3 mm 0.00 in0.0 mm 0.75 in19.1 mm
04:50 PM 81.7°F27.6°C 76.0°F24.4°C 83% 5.0 mph WNW8.0 kmh WNW -- 29.76 in1007.8 mb 0.01 in0.3 mm 0.00 in0.0 mm 0.75 in19.1 mm
04:55 PM 81.1°F27.3°C 76.9°F24.9°C 87% 1.0 mph W1.6 kmh W -- 29.77 in1008.1 mb 0.04 in1.0 mm 0.36 in9.1 mm 0.78 in19.8 mm
05:00 PM 79.2°F26.2°C 76.3°F24.6°C 91% 2.0 mph W3.2 kmh W -- 29.78 in1008.5 mb 0.13 in3.3 mm 0.10 in2.5 mm 0.87 in22.1 mm
05:05 PM 78.8°F26.0°C 76.3°F24.6°C 92% 3.0 mph WNW4.8 kmh WNW -- 29.78 in1008.5 mb 0.14 in3.6 mm 0.12 in3.0 mm 0.89 in22.6 mm
05:10 PM 78.3°F25.7°C 76.1°F24.5°C 93% 3.0 mph WNW4.8 kmh WNW -- 29.78 in1008.5 mb 0.14 in3.6 mm 0.00 in0.0 mm 0.89 in22.6 mm
05:15 PM 78.1°F25.6°C 75.9°F24.4°C 93% 4.0 mph NW6.4 kmh NW -- 29.78 in1008.5 mb 0.14 in3.6 mm 0.00 in0.0 mm 0.89 in22.6 mm
05:20 PM 77.9°F25.5°C 75.7°F24.3°C 93% 5.0 mph NW8.0 kmh NW -- 29.77 in1008.1 mb 0.14 in3.6 mm 0.00 in0.0 mm 0.89 in22.6 mm
05:25 PM 77.9°F25.5°C 75.7°F24.3°C 93% 3.0 mph W4.8 kmh W -- 29.78 in1008.5 mb 0.14 in3.6 mm 0.00 in0.0 mm 0.89 in22.6 mm
05:30 PM 77.9°F25.5°C 75.7°F24.3°C 93% 4.0 mph WNW6.4 kmh WNW -- 29.77 in1008.1 mb 0.14 in3.6 mm 0.00 in0.0 mm 0.89 in22.6 mm
05:35 PM 78.1°F25.6°C 75.9°F24.4°C 93% 4.0 mph W6.4 kmh W -- 29.78 in1008.5 mb 0.15 in3.8 mm 0.12 in3.0 mm 0.90 in22.9 mm
05:40 PM 78.3°F25.7°C 76.1°F24.5°C 93% 3.0 mph NNW4.8 kmh NNW -- 29.78 in1008.5 mb 0.15 in3.8 mm 0.00 in0.0 mm 0.90 in22.9 mm
05:45 PM 78.6°F25.9°C 76.4°F24.7°C 93% 4.0 mph W6.4 kmh W -- 29.78 in1008.5 mb 0.15 in3.8 mm 0.00 in0.0 mm 0.90 in22.9 mm
05:50 PM 78.8°F26.0°C 76.6°F24.8°C 93% 3.0 mph NW4.8 kmh NW -- 29.78 in1008.5 mb 0.15 in3.8 mm 0.00 in0.0 mm 0.90 in22.9 mm
05:55 PM 79.0°F26.1°C 76.5°F24.7°C 92% 3.0 mph WNW4.8 kmh WNW -- 29.78 in1008.5 mb 0.03 in0.8 mm 0.00 in0.0 mm 0.90 in22.9 mm
06:00 PM 79.2°F26.2°C 76.6°F24.8°C 92% 4.0 mph WNW6.4 kmh WNW -- 29.78 in1008.5 mb 0.03 in0.8 mm 0.00 in0.0 mm 0.90 in22.9 mm
06:05 PM 79.3°F26.3°C 76.5°F24.7°C 91% 4.0 mph NNE6.4 kmh NNE -- 29.78 in1008.5 mb 0.01 in0.3 mm 0.00 in0.0 mm 0.90 in22.9 mm
06:10 PM 79.7°F26.5°C 76.5°F24.7°C 90% 5.0 mph NW8.0 kmh NW -- 29.77 in1008.1 mb 0.01 in0.3 mm 0.00 in0.0 mm 0.90 in22.9 mm
06:15 PM 80.1°F26.7°C 76.5°F24.7°C 89% 6.0 mph WNW9.7 kmh WNW -- 29.77 in1008.1 mb 0.01 in0.3 mm 0.00 in0.0 mm 0.90 in22.9 mm
06:20 PM 80.4°F26.9°C 76.5°F24.7°C 88% 6.0 mph WNW9.7 kmh WNW -- 29.78 in1008.5 mb 0.01 in0.3 mm 0.00 in0.0 mm 0.90 in22.9 mm
06:25 PM 81.0°F27.2°C 76.7°F24.8°C 87% 12.0 mph WNW19.3 kmh WNW -- 29.78 in1008.5 mb 0.00 in0.0 mm 0.00 in0.0 mm 0.90 in22.9 mm
06:30 PM 81.1°F27.3°C 76.2°F24.6°C 85% 5.0 mph WNW8.0 kmh WNW -- 29.77 in1008.1 mb 0.00 in0.0 mm 0.00 in0.0 mm 0.90 in22.9 mm
06:35 PM 81.5°F27.5°C 76.5°F24.7°C 85% 4.0 mph WNW6.4 kmh WNW -- 29.77 in1008.1 mb 0.00 in0.0 mm 0.00 in0.0 mm 0.90 in22.9 mm
06:40 PM 81.5°F27.5°C 76.2°F24.6°C 84% 5.0 mph NW8.0 kmh NW -- 29.77 in1008.1 mb 0.00 in0.0 mm 0.00 in0.0 mm 0.90 in22.9 mm
06:45 PM 81.9°F27.7°C 76.2°F24.6°C 83% 5.0 mph W8.0 kmh W -- 29.78 in1008.5 mb 0.00 in0.0 mm 0.00 in0.0 mm 0.90 in22.9 mm
06:50 PM 82.0°F27.8°C 76.0°F24.4°C 82% 9.0 mph W14.5 kmh W -- 29.78 in1008.5 mb 0.00 in0.0 mm 0.00 in0.0 mm 0.90 in22.9 mm
06:55 PM 82.6°F28.1°C 75.4°F24.1°C 79% 7.0 mph W11.3 kmh W -- 29.78 in1008.5 mb 0.00 in0.0 mm 0.00 in0.0 mm 0.90 in22.9 mm
07:00 PM 82.8°F28.2°C 75.6°F24.2°C 79% 6.0 mph NW9.7 kmh NW -- 29.78 in1008.5 mb 0.00 in0.0 mm 0.00 in0.0 mm 0.82 in20.8 mm
07:05 PM 82.8°F28.2°C 76.0°F24.4°C 80% 3.0 mph NW4.8 kmh NW -- 29.79 in1008.8 mb 0.00 in0.0 mm 0.00 in0.0 mm 0.82 in20.8 mm
07:10 PM 82.0°F27.8°C 75.6°F24.2°C 81% 7.0 mph WNW11.3 kmh WNW -- 29.79 in1008.8 mb 0.00 in0.0 mm 0.00 in0.0 mm 0.82 in20.8 mm
07:15 PM 82.2°F27.9°C 75.4°F24.1°C 80% 6.0 mph NW9.7 kmh NW -- 29.79 in1008.8 mb 0.00 in0.0 mm 0.00 in0.0 mm 0.82 in20.8 mm
07:20 PM 82.4°F28.0°C 76.0°F24.4°C 81% 6.0 mph NW9.7 kmh NW -- 29.79 in1008.8 mb 0.00 in0.0 mm 0.00 in0.0 mm 0.82 in20.8 mm
07:25 PM 81.9°F27.7°C 75.8°F24.3°C 82% 3.0 mph WNW4.8 kmh WNW -- 29.79 in1008.8 mb 0.00 in0.0 mm 0.00 in0.0 mm 0.82 in20.8 mm
07:30 PM 81.9°F27.7°C 75.8°F24.3°C 82% 7.0 mph WNW11.3 kmh WNW -- 29.79 in1008.8 mb 0.00 in0.0 mm 0.00 in0.0 mm 0.82 in20.8 mm
07:35 PM 82.4°F28.0°C 75.6°F24.2°C 80% 5.0 mph W8.0 kmh W -- 29.79 in1008.8 mb 0.00 in0.0 mm 0.00 in0.0 mm 0.82 in20.8 mm
07:40 PM 82.8°F28.2°C 76.0°F24.4°C 80% 3.0 mph W4.8 kmh W -- 29.79 in1008.8 mb 0.00 in0.0 mm 0.00 in0.0 mm 0.82 in20.8 mm
07:45 PM 82.8°F28.2°C 75.6°F24.2°C 79% 7.0 mph WNW11.3 kmh WNW -- 29.80 in1009.1 mb 0.00 in0.0 mm 0.00 in0.0 mm 0.82 in20.8 mm
07:50 PM 82.9°F28.3°C 75.8°F24.3°C 79% 8.0 mph WNW12.9 kmh WNW -- 29.80 in1009.1 mb 0.00 in0.0 mm 0.00 in0.0 mm 0.82 in20.8 mm
07:55 PM 83.5°F28.6°C 75.9°F24.4°C 78% 4.0 mph NW6.4 kmh NW -- 29.79 in1008.8 mb 0.00 in0.0 mm 0.00 in0.0 mm 0.82 in20.8 mm
08:00 PM 83.3°F28.5°C 76.5°F24.7°C 80% 6.0 mph W9.7 kmh W -- 29.80 in1009.1 mb 0.00 in0.0 mm 0.00 in0.0 mm 0.82 in20.8 mm
08:05 PM 83.3°F28.5°C 75.7°F24.3°C 78% 6.0 mph W9.7 kmh W -- 29.80 in1009.1 mb 0.00 in0.0 mm 0.00 in0.0 mm 0.82 in20.8 mm
08:10 PM 83.5°F28.6°C 76.3°F24.6°C 79% 5.0 mph WNW8.0 kmh WNW -- 29.79 in1008.8 mb 0.00 in0.0 mm 0.00 in0.0 mm 0.82 in20.8 mm
08:15 PM 82.6°F28.1°C 76.5°F24.7°C 82% 4.0 mph W6.4 kmh W -- 29.80 in1009.1 mb 0.00 in0.0 mm 0.00 in0.0 mm 0.82 in20.8 mm
08:20 PM 82.4°F28.0°C 77.1°F25.1°C 84% 5.0 mph NW8.0 kmh NW -- 29.79 in1008.8 mb 0.00 in0.0 mm 0.00 in0.0 mm 0.82 in20.8 mm
08:25 PM 81.9°F27.7°C 76.5°F24.7°C 84% 5.0 mph W8.0 kmh W -- 29.79 in1008.8 mb 0.00 in0.0 mm 0.00 in0.0 mm 0.82 in20.8 mm
08:30 PM 81.7°F27.6°C 76.4°F24.7°C 84% 3.0 mph W4.8 kmh W -- 29.79 in1008.8 mb 0.00 in0.0 mm 0.00 in0.0 mm 0.82 in20.8 mm
08:35 PM 81.7°F27.6°C 76.4°F24.7°C 84% 8.0 mph WNW12.9 kmh WNW -- 29.80 in1009.1 mb 0.00 in0.0 mm 0.00 in0.0 mm 0.82 in20.8 mm
08:40 PM 82.0°F27.8°C 76.4°F24.7°C 83% 4.0 mph WNW6.4 kmh WNW -- 29.81 in1009.5 mb 0.00 in0.0 mm 0.00 in0.0 mm 0.82 in20.8 mm
08:45 PM 82.6°F28.1°C 76.2°F24.6°C 81% 6.0 mph NW9.7 kmh NW -- 29.81 in1009.5 mb 0.00 in0.0 mm 0.00 in0.0 mm 0.82 in20.8 mm
08:50 PM 82.9°F28.3°C 76.1°F24.5°C 80% 5.0 mph WNW8.0 kmh WNW -- 29.81 in1009.5 mb 0.00 in0.0 mm 0.00 in0.0 mm 0.82 in20.8 mm
08:55 PM 83.1°F28.4°C 75.9°F24.4°C 79% 3.0 mph W4.8 kmh W -- 29.82 in1009.8 mb 0.00 in0.0 mm 0.00 in0.0 mm 0.82 in20.8 mm
09:05 PM 83.1°F28.4°C 75.9°F24.4°C 79% 6.0 mph W9.7 kmh W -- 29.82 in1009.8 mb 0.00 in0.0 mm 0.00 in0.0 mm 0.82 in20.8 mm
09:10 PM 83.3°F28.5°C 75.7°F24.3°C 78% 6.0 mph WNW9.7 kmh WNW -- 29.82 in1009.8 mb 0.00 in0.0 mm 0.00 in0.0 mm 0.82 in20.8 mm
09:15 PM 83.3°F28.5°C 76.1°F24.5°C 79% 3.0 mph NW4.8 kmh NW -- 29.82 in1009.8 mb 0.00 in0.0 mm 0.00 in0.0 mm 0.82 in20.8 mm
09:20 PM 83.5°F28.6°C 75.9°F24.4°C 78% 4.0 mph WNW6.4 kmh WNW -- 29.82 in1009.8 mb 0.00 in0.0 mm 0.00 in0.0 mm 0.82 in20.8 mm
09:25 PM 83.7°F28.7°C 76.1°F24.5°C 78% 3.0 mph WNW4.8 kmh WNW -- 29.82 in1009.8 mb 0.00 in0.0 mm 0.00 in0.0 mm 0.82 in20.8 mm
09:30 PM 83.8°F28.8°C 76.2°F24.6°C 78% 4.0 mph NNW6.4 kmh NNW -- 29.83 in1010.2 mb 0.00 in0.0 mm 0.00 in0.0 mm 0.82 in20.8 mm
09:35 PM 83.7°F28.7°C 76.1°F24.5°C 78% 5.0 mph WNW8.0 kmh WNW -- 29.82 in1009.8 mb 0.00 in0.0 mm 0.00 in0.0 mm 0.82 in20.8 mm
09:40 PM 83.5°F28.6°C 76.3°F24.6°C 79% 4.0 mph WSW6.4 kmh WSW -- 29.82 in1009.8 mb 0.00 in0.0 mm 0.00 in0.0 mm 0.82 in20.8 mm
09:45 PM 83.3°F28.5°C 76.5°F24.7°C 80% 3.0 mph WNW4.8 kmh WNW -- 29.82 in1009.8 mb 0.00 in0.0 mm 0.00 in0.0 mm 0.82 in20.8 mm
09:50 PM 82.9°F28.3°C 76.5°F24.7°C 81% 3.0 mph NW4.8 kmh NW -- 29.82 in1009.8 mb 0.00 in0.0 mm 0.00 in0.0 mm 0.82 in20.8 mm
09:55 PM 82.8°F28.2°C 76.3°F24.6°C 81% 8.0 mph WNW12.9 kmh WNW -- 29.82 in1009.8 mb 0.00 in0.0 mm 0.00 in0.0 mm 0.82 in20.8 mm
10:00 PM 83.1°F28.4°C 76.7°F24.8°C 81% 3.0 mph WNW4.8 kmh WNW -- 29.82 in1009.8 mb 0.00 in0.0 mm 0.00 in0.0 mm 0.82 in20.8 mm
10:05 PM 83.1°F28.4°C 76.7°F24.8°C 81% 4.0 mph WNW6.4 kmh WNW -- 29.82 in1009.8 mb 0.00 in0.0 mm 0.00 in0.0 mm 0.82 in20.8 mm
10:10 PM 83.1°F28.4°C 76.7°F24.8°C 81% 2.0 mph W3.2 kmh W -- 29.82 in1009.8 mb 0.00 in0.0 mm 0.00 in0.0 mm 0.82 in20.8 mm
10:15 PM 82.9°F28.3°C 76.9°F24.9°C 82% 3.0 mph WNW4.8 kmh WNW -- 29.82 in1009.8 mb 0.00 in0.0 mm 0.00 in0.0 mm 0.82 in20.8 mm
10:20 PM 82.8°F28.2°C 76.7°F24.8°C 82% 5.0 mph WNW8.0 kmh WNW -- 29.82 in1009.8 mb 0.00 in0.0 mm 0.00 in0.0 mm 0.82 in20.8 mm
10:25 PM 82.2°F27.9°C 76.9°F24.9°C 84% 4.0 mph W6.4 kmh W -- 29.82 in1009.8 mb 0.00 in0.0 mm 0.00 in0.0 mm 0.82 in20.8 mm
10:30 PM 80.8°F27.1°C 75.8°F24.3°C 85% 9.0 mph WNW14.5 kmh WNW -- 29.83 in1010.2 mb 0.00 in0.0 mm 0.00 in0.0 mm 0.82 in20.8 mm
10:35 PM 80.6°F27.0°C 76.4°F24.7°C 87% 3.0 mph W4.8 kmh W -- 29.84 in1010.5 mb 0.00 in0.0 mm 0.00 in0.0 mm 0.82 in20.8 mm
10:40 PM 79.9°F26.6°C 76.7°F24.8°C 90% 4.0 mph WNW6.4 kmh WNW -- 29.84 in1010.5 mb 0.01 in0.3 mm 0.12 in3.0 mm 0.83 in21.1 mm
10:45 PM 79.5°F26.4°C 76.7°F24.8°C 91% 4.0 mph WNW6.4 kmh WNW -- 29.84 in1010.5 mb 0.02 in0.5 mm 0.12 in3.0 mm 0.84 in21.3 mm
10:50 PM 78.8°F26.0°C 76.3°F24.6°C 92% 3.0 mph NW4.8 kmh NW -- 29.84 in1010.5 mb 0.04 in1.0 mm 0.24 in6.1 mm 0.86 in21.8 mm
10:55 PM 77.9°F25.5°C 75.4°F24.1°C 92% 4.0 mph SW6.4 kmh SW -- 29.84 in1010.5 mb 0.04 in1.0 mm 0.00 in0.0 mm 0.86 in21.8 mm
11:00 PM 77.7°F25.4°C 75.5°F24.2°C 93% 2.0 mph W3.2 kmh W -- 29.83 in1010.2 mb 0.11 in2.8 mm 0.08 in2.0 mm 0.93 in23.6 mm
11:05 PM 77.5°F25.3°C 75.3°F24.1°C 93% 3.0 mph WNW4.8 kmh WNW -- 29.85 in1010.8 mb 0.17 in4.3 mm 0.72 in18.3 mm 0.02 in0.5 mm
11:10 PM 77.4°F25.2°C 75.2°F24.0°C 93% 2.0 mph WSW3.2 kmh WSW -- 29.83 in1010.2 mb 0.17 in4.3 mm 0.00 in0.0 mm 0.02 in0.5 mm
11:15 PM 77.4°F25.2°C 75.5°F24.2°C 94% 1.0 mph WNW1.6 kmh WNW -- 29.83 in1010.2 mb 0.17 in4.3 mm 0.00 in0.0 mm 0.02 in0.5 mm
11:20 PM 77.4°F25.2°C 75.5°F24.2°C 94% 2.0 mph W3.2 kmh W -- 29.84 in1010.5 mb 0.17 in4.3 mm 0.00 in0.0 mm 0.02 in0.5 mm
11:25 PM 77.2°F25.1°C 75.3°F24.1°C 94% 3.0 mph SW4.8 kmh SW -- 29.84 in1010.5 mb 0.17 in4.3 mm 0.00 in0.0 mm 0.02 in0.5 mm
11:30 PM 77.4°F25.2°C 75.5°F24.2°C 94% Calm Calm -- 29.84 in1010.5 mb 0.17 in4.3 mm 0.00 in0.0 mm 0.02 in0.5 mm
11:35 PM 77.5°F25.3°C 75.7°F24.3°C 94% Calm Calm -- 29.83 in1010.2 mb 0.17 in4.3 mm 0.00 in0.0 mm 0.03 in0.8 mm
11:45 PM 77.5°F25.3°C 75.7°F24.3°C 94% Calm Calm -- 29.84 in1010.5 mb 0.14 in3.6 mm 0.00 in0.0 mm 0.03 in0.8 mm
11:50 PM 77.5°F25.3°C 75.7°F24.3°C 94% 2.0 mph WSW3.2 kmh WSW -- 29.84 in1010.5 mb 0.14 in3.6 mm 0.00 in0.0 mm 0.03 in0.8 mm
11:55 PM 77.4°F25.2°C 75.5°F24.2°C 94% 1.0 mph WSW1.6 kmh WSW -- 29.84 in1010.5 mb 0.05 in1.3 mm 0.00 in0.0 mm 0.03 in0.8 mm